Terminal Aerodrome Forecast
Issued by NWS

Home | Current Version | Previous Version | Text Only | Print | Product List | Glossary On
Versions: 1 2 3 4 5 6 7 8 9 10 11 12 13 14 15 16
000
FTUS46 KPDT 221100
TAFALW
TAF
KALW 221139Z 2212/2312 20010KT P6SM OVC090
     FM221600 22009KT P6SM BKN070 BKN150
     FM221900 27008KT P6SM SCT070 BKN150
     FM230100 VRB04KT P6SM BKN120
     FM230800 18006KT P6SM BKN090=

USA.gov is the U.S. government's official web portal to all federal, state and local government web resources and services.